createdAt,value
2022-08-08T00:02:03.079Z,11.44
2022-08-08T00:04:55.473Z,11.38
2022-08-08T00:07:52.500Z,11.34
2022-08-08T00:10:49.641Z,11.32
2022-08-08T00:14:17.166Z,11.32
2022-08-08T00:16:57.018Z,11.28
2022-08-08T00:19:51.370Z,11.22
2022-08-08T00:22:42.502Z,11.20
2022-08-08T00:25:44.915Z,11.18
2022-08-08T00:28:42.354Z,11.18
2022-08-08T00:32:21.231Z,11.11
2022-08-08T00:35:20.252Z,11.04
2022-08-08T00:38:32.010Z,11.00
2022-08-08T00:42:19.729Z,10.99
2022-08-08T00:45:44.086Z,10.97
2022-08-08T00:49:01.128Z,10.92
2022-08-08T00:52:19.976Z,10.86
2022-08-08T00:55:52.913Z,10.80
2022-08-08T00:59:14.777Z,10.95
2022-08-08T01:03:57.319Z,10.80
2022-08-08T01:06:11.770Z,10.93
2022-08-08T01:09:42.696Z,10.77
2022-08-08T01:13:15.286Z,10.60
2022-08-08T01:16:37.158Z,10.55
2022-08-08T01:20:03.925Z,10.46
2022-08-08T01:24:03.225Z,10.40
2022-08-08T01:27:10.883Z,10.32
2022-08-08T01:30:55.896Z,10.23
2022-08-08T01:34:35.515Z,10.20
2022-08-08T01:38:04.649Z,10.16
2022-08-08T01:41:24.950Z,10.04
2022-08-08T01:44:34.447Z,10.16
2022-08-08T01:48:16.847Z,10.13
2022-08-08T01:50:53.823Z,10.13
2022-08-08T01:55:08.556Z,10.12
2022-08-08T01:57:17.531Z,10.07
2022-08-08T02:00:15.276Z,10.15
2022-08-08T02:03:50.587Z,10.18
2022-08-08T02:06:58.535Z,10.22
2022-08-08T02:10:12.112Z,10.17
2022-08-08T02:13:06.503Z,10.10
2022-08-08T02:16:04.498Z,10.08
2022-08-08T02:18:59.535Z,10.11
2022-08-08T02:22:16.345Z,10.10
2022-08-08T02:25:16.663Z,10.13
2022-08-08T02:28:09.427Z,10.13
2022-08-08T02:31:07.207Z,10.08
2022-08-08T02:34:27.525Z,10.01
2022-08-08T02:37:53.226Z,10.02
2022-08-08T02:40:50.264Z,10.09
2022-08-08T02:44:37.591Z,9.99
2022-08-08T02:48:13.001Z,9.66
2022-08-08T02:51:55.576Z,9.82
2022-08-08T02:55:24.548Z,9.72
2022-08-08T02:58:53.489Z,9.70
2022-08-08T03:02:28.894Z,9.66
2022-08-08T03:06:04.195Z,9.60
2022-08-08T03:09:34.075Z,9.55
2022-08-08T03:13:02.674Z,9.54
2022-08-08T03:16:35.541Z,9.57
2022-08-08T03:19:51.499Z,9.50
2022-08-08T03:22:47.350Z,9.43
2022-08-08T03:25:36.590Z,9.41
2022-08-08T03:28:33.117Z,9.38
2022-08-08T03:32:06.430Z,9.47
2022-08-08T03:34:47.413Z,9.47
2022-08-08T03:38:52.827Z,9.41
2022-08-08T03:40:52.637Z,9.36
2022-08-08T03:43:41.711Z,9.34
2022-08-08T03:46:32.478Z,9.05
2022-08-08T03:49:57.803Z,9.17
2022-08-08T03:52:31.407Z,9.35
2022-08-08T03:55:55.911Z,9.34
2022-08-08T03:58:37.343Z,9.41
2022-08-08T04:02:22.973Z,9.34
2022-08-08T04:04:45.469Z,9.35
2022-08-08T04:07:37.378Z,9.43
2022-08-08T04:10:24.469Z,9.42
2022-08-08T04:13:17.993Z,9.42
2022-08-08T04:16:11.759Z,9.41
2022-08-08T04:19:02.564Z,9.50
2022-08-08T04:21:50.353Z,9.55
2022-08-08T04:24:37.055Z,9.59
2022-08-08T04:28:02.535Z,9.65
2022-08-08T04:30:44.159Z,9.73
2022-08-08T04:33:41.545Z,9.73
2022-08-08T04:36:30.006Z,9.71
2022-08-08T04:40:04.022Z,9.69
2022-08-08T04:42:26.138Z,9.79
2022-08-08T04:45:13.264Z,9.81
2022-08-08T04:48:01.542Z,10.12
2022-08-08T04:50:54.014Z,10.31
2022-08-08T04:54:26.937Z,10.47
2022-08-08T04:56:56.352Z,10.64
2022-08-08T04:59:48.999Z,10.78
2022-08-08T05:02:37.348Z,11.04
2022-08-08T05:05:44.465Z,11.04
2022-08-08T05:08:35.949Z,11.18
2022-08-08T05:11:26.194Z,11.46
2022-08-08T05:19:02.083Z,12.96
2022-08-08T05:21:59.579Z,13.37
2022-08-08T05:24:49.444Z,13.64
2022-08-08T05:27:41.600Z,13.94
2022-08-08T05:30:39.453Z,14.13
2022-08-08T05:33:44.237Z,14.20
2022-08-08T05:36:41.094Z,14.27
2022-08-08T05:39:35.006Z,14.22
2022-08-08T05:42:39.734Z,14.34
2022-08-08T05:45:41.295Z,14.52
2022-08-08T05:48:31.428Z,14.74
2022-08-08T05:51:23.189Z,15.00
2022-08-08T05:54:28.914Z,15.17
2022-08-08T05:57:57.499Z,15.18
2022-08-08T06:00:39.070Z,15.27
2022-08-08T06:03:33.633Z,15.33
2022-08-08T06:06:32.470Z,15.34
2022-08-08T06:09:58.447Z,15.08
2022-08-08T06:12:38.374Z,14.63
2022-08-08T06:15:49.902Z,14.55
2022-08-08T06:18:40.011Z,14.91
2022-08-08T06:21:48.449Z,15.18
2022-08-08T06:24:47.243Z,15.48
2022-08-08T06:27:52.528Z,15.62
2022-08-08T06:30:41.833Z,15.72
2022-08-08T06:34:26.150Z,15.96
2022-08-08T06:36:53.905Z,16.11
2022-08-08T06:39:55.995Z,16.27
2022-08-08T06:42:52.133Z,16.36
2022-08-08T06:45:44.898Z,16.44
2022-08-08T06:48:38.479Z,16.71
2022-08-08T06:51:46.717Z,16.85
2022-08-08T06:54:38.845Z,17.04
2022-08-08T06:57:29.465Z,17.16
2022-08-08T07:00:40.730Z,17.16
2022-08-08T07:03:52.579Z,17.26
2022-08-08T07:06:46.995Z,17.42
2022-08-08T07:09:45.609Z,17.64
2022-08-08T07:12:47.592Z,17.80
2022-08-08T07:16:04.394Z,17.99
2022-08-08T07:19:06.945Z,18.19
2022-08-08T07:22:05.411Z,18.38
2022-08-08T07:25:01.795Z,18.57
2022-08-08T07:28:02.635Z,18.73
2022-08-08T07:30:58.934Z,19.14
2022-08-08T07:33:53.272Z,19.43
2022-08-08T07:36:50.234Z,19.60
2022-08-08T07:39:56.028Z,19.94
2022-08-08T07:42:48.364Z,20.28
2022-08-08T07:45:51.526Z,20.74
2022-08-08T07:48:45.084Z,20.80
2022-08-08T07:51:45.058Z,20.84
2022-08-08T07:54:44.978Z,20.86
2022-08-08T07:57:45.016Z,20.69
2022-08-08T08:00:41.946Z,20.61
2022-08-08T08:03:43.455Z,20.43
2022-08-08T08:06:41.708Z,20.46
2022-08-08T08:09:38.042Z,20.46
2022-08-08T08:12:35.190Z,20.51
2022-08-08T08:15:32.365Z,20.57
2022-08-08T08:18:31.692Z,20.86
2022-08-08T08:21:44.664Z,21.06
2022-08-08T08:24:51.590Z,21.40
2022-08-08T08:27:46.734Z,21.65
2022-08-08T08:30:35.530Z,21.90
2022-08-08T08:33:22.474Z,22.04
2022-08-08T08:36:19.922Z,22.12
2022-08-08T08:40:00.277Z,22.19
2022-08-08T08:42:43.457Z,22.48
2022-08-08T08:45:40.859Z,22.65
2022-08-08T08:48:32.494Z,22.68
2022-08-08T08:51:20.946Z,22.95
2022-08-08T08:54:09.375Z,23.13
2022-08-08T08:56:58.100Z,23.20
2022-08-08T08:59:59.074Z,23.28
2022-08-08T09:02:48.649Z,23.54
2022-08-08T09:05:53.799Z,23.50
2022-08-08T09:08:51.998Z,23.61
2022-08-08T09:11:47.670Z,23.62
2022-08-08T09:14:50.353Z,23.90
2022-08-08T09:17:52.494Z,24.08
2022-08-08T09:22:00.133Z,24.19
2022-08-08T09:24:04.301Z,24.54
2022-08-08T09:27:14.851Z,24.59
2022-08-08T09:30:23.217Z,24.57
2022-08-08T09:34:15.037Z,24.61
2022-08-08T09:36:31.543Z,24.73
2022-08-08T09:39:23.537Z,24.68
2022-08-08T09:42:21.281Z,24.61
2022-08-08T09:45:15.570Z,24.33
2022-08-08T09:48:17.815Z,23.97
2022-08-08T09:51:11.034Z,23.86
2022-08-08T09:54:09.614Z,23.57
2022-08-08T09:57:16.920Z,23.10
2022-08-08T10:00:50.116Z,23.00
2022-08-08T10:03:31.622Z,22.79
2022-08-08T10:06:21.244Z,22.52
2022-08-08T10:09:16.538Z,22.57
2022-08-08T10:12:28.420Z,22.79
2022-08-08T10:15:18.507Z,23.25
2022-08-08T10:18:10.402Z,23.79
2022-08-08T10:21:08.421Z,24.25
2022-08-08T10:24:29.530Z,24.68
2022-08-08T10:27:18.984Z,25.08
2022-08-08T10:30:08.192Z,25.37
2022-08-08T10:33:09.858Z,25.55
2022-08-08T10:36:08.438Z,25.80
2022-08-08T10:39:11.085Z,25.64
2022-08-08T10:42:16.820Z,25.58
2022-08-08T10:45:08.099Z,25.78
2022-08-08T10:47:58.291Z,25.73
2022-08-08T10:50:47.327Z,25.81
2022-08-08T10:53:56.606Z,25.72
2022-08-08T10:56:43.714Z,25.49
2022-08-08T10:59:31.020Z,25.58
2022-08-08T11:02:26.784Z,25.44
2022-08-08T11:05:44.788Z,25.35
2022-08-08T11:08:53.335Z,25.53
2022-08-08T11:12:04.686Z,25.58
2022-08-08T11:15:00.705Z,25.72
2022-08-08T11:17:59.742Z,25.65
2022-08-08T11:20:52.391Z,25.30
2022-08-08T11:23:43.891Z,25.03
2022-08-08T11:26:34.650Z,24.75
2022-08-08T11:29:41.901Z,24.50
2022-08-08T11:32:39.132Z,24.28
2022-08-08T11:35:38.508Z,24.07
2022-08-08T11:38:39.057Z,23.77
2022-08-08T11:41:33.666Z,23.56
2022-08-08T11:44:29.087Z,23.41
2022-08-08T11:47:17.009Z,23.60
2022-08-08T11:50:10.073Z,23.72
2022-08-08T11:52:59.018Z,24.05
2022-08-08T11:55:50.300Z,24.60
2022-08-08T11:58:45.114Z,24.86
2022-08-08T12:01:41.534Z,25.20
2022-08-08T12:04:29.348Z,25.31
2022-08-08T12:07:17.238Z,25.63
2022-08-08T12:10:16.433Z,25.88
2022-08-08T12:13:07.057Z,26.25
2022-08-08T12:16:09.321Z,26.39
2022-08-08T12:18:59.186Z,26.43
2022-08-08T12:21:59.800Z,26.49
2022-08-08T12:24:56.134Z,26.55
2022-08-08T12:27:45.701Z,26.54
2022-08-08T12:30:37.772Z,26.52
2022-08-08T12:33:37.656Z,26.62
2022-08-08T12:36:46.180Z,26.97
2022-08-08T12:39:58.164Z,27.00
2022-08-08T12:42:50.682Z,27.10
2022-08-08T12:45:58.244Z,27.16
2022-08-08T12:49:21.919Z,27.20
2022-08-08T12:52:03.927Z,27.18
2022-08-08T12:55:13.165Z,27.19
2022-08-08T12:58:15.712Z,26.98
2022-08-08T13:01:11.105Z,26.54
2022-08-08T13:04:02.872Z,26.28
2022-08-08T13:07:03.986Z,26.04
2022-08-08T13:10:05.106Z,25.90
2022-08-08T13:12:52.851Z,25.86
2022-08-08T13:15:42.230Z,25.65
2022-08-08T13:18:56.333Z,25.31
2022-08-08T13:21:58.244Z,25.58
2022-08-08T13:24:51.177Z,25.24
2022-08-08T13:27:38.017Z,25.16
2022-08-08T13:30:28.339Z,25.39
2022-08-08T13:33:18.445Z,25.21
2022-08-08T13:36:07.424Z,25.49
2022-08-08T13:38:59.243Z,25.80
2022-08-08T13:41:53.530Z,25.95
2022-08-08T13:44:44.221Z,25.86
2022-08-08T13:47:32.647Z,26.08
2022-08-08T13:50:35.186Z,26.47
2022-08-08T13:53:33.809Z,26.32
2022-08-08T13:56:31.996Z,26.32
2022-08-08T13:59:32.974Z,26.16
2022-08-08T14:02:21.364Z,25.75
2022-08-08T14:05:22.197Z,25.84
2022-08-08T14:08:16.859Z,25.52
2022-08-08T14:11:18.066Z,25.51
2022-08-08T14:14:09.936Z,25.35
2022-08-08T14:16:57.298Z,25.23
2022-08-08T14:19:58.058Z,25.13
2022-08-08T14:22:52.904Z,25.02
2022-08-08T14:25:46.004Z,24.96
2022-08-08T14:28:51.874Z,24.97
2022-08-08T14:32:11.433Z,25.13
2022-08-08T14:34:59.699Z,25.34
2022-08-08T14:38:00.347Z,25.33
2022-08-08T14:40:50.465Z,25.14
2022-08-08T14:44:09.576Z,25.21
2022-08-08T14:47:01.014Z,25.14
2022-08-08T14:50:06.184Z,24.91
2022-08-08T14:52:57.027Z,24.96
2022-08-08T14:55:43.976Z,24.83
2022-08-08T14:58:32.551Z,24.86
2022-08-08T15:01:27.833Z,24.73
2022-08-08T15:04:16.112Z,24.62
2022-08-08T15:07:02.753Z,24.63
2022-08-08T15:09:51.441Z,24.62
2022-08-08T15:12:38.842Z,24.69
2022-08-08T15:16:03.095Z,24.89
2022-08-08T15:18:34.597Z,25.10
2022-08-08T15:21:22.634Z,25.44
2022-08-08T15:24:16.146Z,25.63
2022-08-08T15:27:12.130Z,25.75
2022-08-08T15:30:12.290Z,25.61
2022-08-08T15:33:00.847Z,25.44
2022-08-08T15:35:47.665Z,25.09
2022-08-08T15:38:40.636Z,25.14
2022-08-08T15:41:43.533Z,24.88
2022-08-08T15:44:31.264Z,24.72
2022-08-08T15:47:19.049Z,24.80
2022-08-08T15:50:16.774Z,24.76
2022-08-08T15:53:06.993Z,24.92
2022-08-08T15:55:55.139Z,25.11
2022-08-08T15:58:48.584Z,25.32
2022-08-08T16:01:40.719Z,25.43
2022-08-08T16:04:42.788Z,25.34
2022-08-08T16:07:51.986Z,25.16
2022-08-08T16:13:11.730Z,25.01
2022-08-08T16:13:49.605Z,25.11
2022-08-08T16:16:40.694Z,25.23
2022-08-08T16:19:30.351Z,25.52
2022-08-08T16:22:37.095Z,25.34
2022-08-08T16:25:24.468Z,25.40
2022-08-08T16:28:35.938Z,25.19
2022-08-08T16:31:24.583Z,25.00
2022-08-08T16:34:13.363Z,24.83
2022-08-08T16:37:00.237Z,24.77
2022-08-08T16:40:00.793Z,24.58
2022-08-08T16:42:51.879Z,24.38
2022-08-08T16:46:39.229Z,24.22
2022-08-08T16:48:53.431Z,24.18
2022-08-08T16:55:03.231Z,24.16
2022-08-08T16:55:22.714Z,24.22
2022-08-08T16:58:16.349Z,24.01
2022-08-08T17:03:58.838Z,24.04
2022-08-08T17:06:47.864Z,23.96
2022-08-08T17:09:45.091Z,23.79
2022-08-08T17:12:32.480Z,23.74
2022-08-08T17:15:23.477Z,23.47
2022-08-08T17:18:15.792Z,23.41
2022-08-08T17:21:03.840Z,23.27
2022-08-08T17:24:00.017Z,23.41
2022-08-08T17:26:48.592Z,23.47
2022-08-08T17:29:43.333Z,23.51
2022-08-08T17:32:44.562Z,23.74
2022-08-08T17:35:56.191Z,23.54
2022-08-08T17:38:44.309Z,23.55
2022-08-08T17:41:39.218Z,23.37
2022-08-08T17:44:30.060Z,23.39
2022-08-08T17:47:24.145Z,23.30
2022-08-08T17:50:16.914Z,23.29
2022-08-08T17:53:03.781Z,23.32
2022-08-08T17:56:06.148Z,23.11
2022-08-08T17:58:54.925Z,23.27
2022-08-08T18:01:51.278Z,23.14
2022-08-08T18:04:48.561Z,23.16
2022-08-08T18:08:03.414Z,22.97
2022-08-08T18:10:44.590Z,22.87
2022-08-08T18:13:34.989Z,22.91
2022-08-08T18:16:30.984Z,22.66
2022-08-08T18:19:21.607Z,22.73
2022-08-08T18:22:49.805Z,22.64
2022-08-08T18:25:14.895Z,22.60
2022-08-08T18:28:01.760Z,22.63
2022-08-08T18:30:51.220Z,22.42
2022-08-08T18:34:12.451Z,22.29
2022-08-08T18:36:44.819Z,22.02
2022-08-08T18:39:36.313Z,22.22
2022-08-08T18:42:23.303Z,21.87
2022-08-08T18:45:44.950Z,21.77
2022-08-08T18:48:20.572Z,21.49
2022-08-08T18:51:33.499Z,21.28
2022-08-08T18:54:24.914Z,21.25
2022-08-08T18:57:15.841Z,21.21
2022-08-08T19:00:03.707Z,21.20
2022-08-08T19:02:56.543Z,21.01
2022-08-08T19:05:49.826Z,20.92
2022-08-08T19:08:38.227Z,20.87
2022-08-08T19:11:26.941Z,20.69
2022-08-08T19:14:20.615Z,20.58
2022-08-08T19:17:08.559Z,20.48
2022-08-08T19:20:02.242Z,20.36
2022-08-08T19:22:53.050Z,20.18
2022-08-08T19:26:19.682Z,20.00
2022-08-08T19:28:48.250Z,19.86
2022-08-08T19:31:49.207Z,19.76
2022-08-08T19:34:41.648Z,19.72
2022-08-08T19:37:43.389Z,19.62
2022-08-08T19:40:35.895Z,19.48
2022-08-08T19:43:28.626Z,19.35
2022-08-08T19:46:22.417Z,19.54
2022-08-08T19:49:09.770Z,19.55
2022-08-08T19:51:56.710Z,19.64
2022-08-08T19:54:44.253Z,19.58
2022-08-08T19:57:35.577Z,19.54
2022-08-08T20:00:30.869Z,19.71
2022-08-08T20:04:01.158Z,19.54
2022-08-08T20:06:25.132Z,19.45
2022-08-08T20:09:12.595Z,19.48
2022-08-08T20:12:14.026Z,19.48
2022-08-08T20:15:21.815Z,19.60
2022-08-08T20:18:15.545Z,19.51
2022-08-08T20:21:04.179Z,19.50
2022-08-08T20:23:52.564Z,19.48
2022-08-08T20:26:41.630Z,19.38
2022-08-08T20:29:55.494Z,19.28
2022-08-08T20:32:37.728Z,19.18
2022-08-08T20:35:24.343Z,19.05
2022-08-08T20:38:43.296Z,18.97
2022-08-08T20:41:33.767Z,19.04
2022-08-08T20:44:28.681Z,19.01
2022-08-08T20:47:23.408Z,18.99
2022-08-08T20:50:15.138Z,18.96
2022-08-08T20:53:03.401Z,18.96
2022-08-08T20:55:55.998Z,18.93
2022-08-08T20:58:46.835Z,18.83
2022-08-08T21:02:06.197Z,18.76
2022-08-08T21:05:01.621Z,18.68
2022-08-08T21:08:34.291Z,18.63
2022-08-08T21:11:08.437Z,18.50
2022-08-08T21:13:58.567Z,18.41
2022-08-08T21:16:49.565Z,18.31
2022-08-08T21:19:45.248Z,18.21
2022-08-08T21:22:33.012Z,18.07
2022-08-08T21:25:21.180Z,18.02
2022-08-08T21:28:15.886Z,17.92
2022-08-08T21:31:05.854Z,17.78
2022-08-08T21:34:09.031Z,17.65
2022-08-08T21:37:16.116Z,17.51
2022-08-08T21:40:07.938Z,17.48
2022-08-08T21:42:55.952Z,17.37
2022-08-08T21:48:06.008Z,17.36
2022-08-08T21:48:53.226Z,17.29
2022-08-08T21:54:17.654Z,17.26
2022-08-08T21:55:01.759Z,17.22
2022-08-08T21:58:05.179Z,17.22
2022-08-08T22:00:59.686Z,17.22
2022-08-08T22:03:52.530Z,17.35
2022-08-08T22:06:40.676Z,17.25
2022-08-08T22:09:41.027Z,17.28
2022-08-08T22:12:31.142Z,17.30
2022-08-08T22:15:18.321Z,17.33
2022-08-08T22:18:12.342Z,17.38
2022-08-08T22:21:10.628Z,17.35
2022-08-08T22:24:01.424Z,17.44
2022-08-08T22:27:01.597Z,17.43
2022-08-08T22:30:01.928Z,17.47
2022-08-08T22:32:49.627Z,17.43
2022-08-08T22:36:05.601Z,17.39
2022-08-08T22:38:48.466Z,17.37
2022-08-08T22:41:36.085Z,17.35
2022-08-08T22:44:25.746Z,17.35
2022-08-08T22:47:17.469Z,17.36
2022-08-08T22:50:05.804Z,17.33
2022-08-08T22:54:31.157Z,17.35
2022-08-08T22:56:15.670Z,17.43
2022-08-08T22:59:08.357Z,17.36
2022-08-08T23:02:02.371Z,17.38
2022-08-08T23:05:04.734Z,17.32
2022-08-08T23:07:57.672Z,17.31
2022-08-08T23:10:46.020Z,17.30
2022-08-08T23:13:41.880Z,17.33
2022-08-08T23:16:43.526Z,17.30
2022-08-08T23:19:32.682Z,17.31
2022-08-08T23:22:20.257Z,17.29
2022-08-08T23:25:07.700Z,17.27
2022-08-08T23:27:55.856Z,17.27
2022-08-08T23:30:46.003Z,17.28
2022-08-08T23:34:15.989Z,17.29
2022-08-08T23:36:39.058Z,17.32
2022-08-08T23:39:31.929Z,17.28
2022-08-08T23:42:27.801Z,17.26
2022-08-08T23:45:15.940Z,17.24
2022-08-08T23:49:05.198Z,17.28
2022-08-08T23:51:12.723Z,17.27
2022-08-08T23:54:41.759Z,17.27
2022-08-08T23:57:26.784Z,17.24
